Time;durP1;ratioP1;P1;durP2;ratioP2;P2;SDS_P1;SDS_P2;PMS_P1;PMS_P2;Temp;Humidity;BMP_temperature;BMP_pressure;BME280_temperature;BME280_humidity;BME280_pressure;Samples;Min_cycle;Max_cycle;Signal;HPM_P1;HPM_P2
2022/10/31 00:02:21;;;;;;;;;11.67;7.67;;;;;15.85;100.00;101713.28;5057243;28;45283;-76
2022/10/31 00:04:46;;;;;;;;;8.00;8.00;;;;;15.86;100.00;101715.03;5054883;28;57676;-78
2022/10/31 00:07:12;;;;;;;;;11.00;8.00;;;;;15.85;100.00;101716.81;5057483;28;45566;-77
2022/10/31 00:09:37;;;;;;;;;6.00;6.00;;;;;15.81;100.00;101724.78;5067184;28;68488;-77
2022/10/31 00:12:02;;;;;;;;;13.67;9.00;;;;;15.81;100.00;101723.00;5074105;28;62601;-77
2022/10/31 00:14:28;;;;;;;;;7.67;7.67;;;;;15.78;100.00;101724.81;5057103;28;45740;-76
2022/10/31 00:16:53;;;;;;;;;10.67;9.00;;;;;15.75;100.00;101731.00;5079025;27;52230;-77
2022/10/31 00:19:18;;;;;;;;;11.67;6.00;;;;;15.75;100.00;101738.09;5097366;27;55625;-77
2022/10/31 00:21:44;;;;;;;;;8.33;8.00;;;;;15.71;100.00;101740.75;5097454;27;57262;-76
2022/10/31 00:24:10;;;;;;;;;8.33;7.67;;;;;15.69;100.00;101738.94;5078875;27;54073;-77
2022/10/31 00:26:36;;;;;;;;;8.00;7.00;;;;;15.69;100.00;101731.84;5096803;27;45446;-76
2022/10/31 00:29:01;;;;;;;;;8.00;6.67;;;;;15.68;100.00;101732.75;5060294;27;47275;-77
2022/10/31 00:31:27;;;;;;;;;9.33;8.00;;;;;15.65;100.00;101721.19;5075454;27;66986;-77
2022/10/31 00:33:52;;;;;;;;;9.33;7.33;;;;;15.64;100.00;101725.63;5072816;27;45285;-76
2022/10/31 00:36:19;;;;;;;;;8.67;7.67;;;;;15.65;100.00;101718.50;5096489;27;53712;-77
2022/10/31 00:38:45;;;;;;;;;8.33;7.00;;;;;15.63;100.00;101725.63;5083208;27;47200;-76
2022/10/31 00:41:11;;;;;;;;;7.00;6.67;;;;;15.62;100.00;101723.81;5079176;27;45416;-76
2022/10/31 00:43:37;;;;;;;;;7.67;7.67;;;;;15.59;100.00;101722.00;5097578;27;45542;-76
2022/10/31 00:46:02;;;;;;;;;10.00;9.00;;;;;15.58;100.00;101714.03;5092316;27;61275;-76
2022/10/31 00:48:29;;;;;;;;;8.00;6.00;;;;;15.57;100.00;101721.13;5068550;28;46649;-76
2022/10/31 00:50:55;;;;;;;;;10.33;8.33;;;;;15.57;100.00;101721.13;5088217;27;45337;-76
2022/10/31 00:53:20;;;;;;;;;7.33;7.00;;;;;15.57;100.00;101723.78;5079137;27;45505;-77
2022/10/31 00:55:46;;;;;;;;;9.67;8.33;;;;;15.59;100.00;101726.44;5079492;27;45341;-76
2022/10/31 00:58:11;;;;;;;;;6.00;6.00;;;;;15.59;100.00;101711.34;5079009;27;45692;-77
2022/10/31 01:00:36;;;;;;;;;10.00;8.00;;;;;15.59;100.00;101714.03;5076815;27;45273;-76
2022/10/31 01:03:02;;;;;;;;;8.00;6.33;;;;;15.62;100.00;101715.81;5097205;27;55906;-76
2022/10/31 01:05:28;;;;;;;;;9.00;7.33;;;;;15.61;100.00;101709.63;5097239;27;45413;-76
2022/10/31 01:07:53;;;;;;;;;8.33;5.67;;;;;15.63;100.00;101721.19;5096557;27;63497;-77
2022/10/31 01:10:19;;;;;;;;;13.00;8.00;;;;;15.61;100.00;101714.94;5077707;27;63180;-76
2022/10/31 01:12:46;;;;;;;;;6.67;5.67;;;;;15.65;100.00;101715.84;5095539;27;45455;-76
2022/10/31 01:15:13;;;;;;;;;8.33;7.67;;;;;15.65;100.00;101699.88;5073387;27;45503;-76
2022/10/31 01:17:39;;;;;;;;;10.00;8.67;;;;;15.63;100.00;101699.88;5076067;27;48572;-77
2022/10/31 01:20:13;;;;;;;;;9.67;8.00;;;;;15.65;100.00;101689.22;5078890;27;45224;-77
2022/10/31 01:22:38;;;;;;;;;9.33;7.67;;;;;15.67;100.00;101687.47;5077529;27;45520;-76
2022/10/31 01:25:04;;;;;;;;;8.00;7.00;;;;;15.72;100.00;101688.38;5078585;27;58568;-76
2022/10/31 01:27:31;;;;;;;;;13.67;7.33;;;;;15.71;100.00;101687.50;5077580;27;46659;-77
2022/10/31 01:29:56;;;;;;;;;10.33;7.67;;;;;15.76;100.00;101683.94;5098669;27;45296;-77
2022/10/31 01:32:22;;;;;;;;;10.00;8.00;;;;;15.78;100.00;101679.53;5082507;27;45459;-76
2022/10/31 01:34:47;;;;;;;;;9.00;7.00;;;;;15.80;100.00;101673.31;5077951;27;45617;-76
2022/10/31 01:37:12;;;;;;;;;6.00;6.00;;;;;15.80;100.00;101662.66;5099916;27;55057;-76
2022/10/31 01:39:38;;;;;;;;;9.00;8.67;;;;;15.84;100.00;101667.13;5078635;28;45461;-76
2022/10/31 01:42:03;;;;;;;;;9.67;8.00;;;;;15.87;100.00;101663.56;5078085;27;45209;-76
2022/10/31 01:44:28;;;;;;;;;11.00;10.00;;;;;15.91;100.00;101668.00;5064559;27;60573;-77
2022/10/31 01:46:59;;;;;;;;;13.67;10.33;;;;;15.90;100.00;101661.78;5100562;27;46309;-76
2022/10/31 01:49:25;;;;;;;;;15.00;12.67;;;;;15.96;100.00;101655.59;5055354;28;46125;-76
2022/10/31 01:51:54;;;;;;;;;11.00;10.00;;;;;15.98;100.00;101656.50;5095653;27;45541;-76
2022/10/31 01:54:24;;;;;;;;;10.00;8.67;;;;;16.02;100.00;101657.38;5080700;27;45626;-76
2022/10/31 01:56:51;;;;;;;;;12.00;10.67;;;;;16.03;100.00;101649.38;5080422;27;45457;-76
2022/10/31 01:59:19;;;;;;;;;11.00;11.00;;;;;16.04;100.00;101650.31;5099003;27;45590;-77
2022/10/31 02:01:46;;;;;;;;;14.00;12.67;;;;;16.07;100.00;101644.97;5079051;27;45353;-77
2022/10/31 02:04:12;;;;;;;;;13.00;10.67;;;;;16.08;100.00;101647.63;5100318;27;45330;-77
2022/10/31 02:06:47;;;;;;;;;17.00;13.33;;;;;16.09;100.00;101649.41;5078002;28;46639;-77
2022/10/31 02:09:14;;;;;;;;;12.00;10.33;;;;;16.10;100.00;101645.88;5078433;27;45480;-76
2022/10/31 02:11:41;;;;;;;;;12.67;12.33;;;;;16.09;100.00;101644.09;5098927;27;45323;-76
2022/10/31 02:14:06;;;;;;;;;19.00;13.00;;;;;16.12;100.00;101651.19;5078438;28;45320;-76
2022/10/31 02:16:31;;;;;;;;;13.67;12.67;;;;;16.12;100.00;101649.41;5088168;27;45529;-75
2022/10/31 02:18:57;;;;;;;;;15.00;13.00;;;;;16.13;100.00;101648.50;5091925;27;46285;-76
2022/10/31 02:21:43;;;;;;;;;14.67;13.33;;;;;16.15;100.00;101644.09;5077257;28;62749;-76
2022/10/31 02:24:40;;;;;;;;;13.67;12.67;;;;;16.16;100.00;101645.88;5078651;27;45570;-76
2022/10/31 02:27:32;;;;;;;;;17.00;15.33;;;;;16.17;100.00;101638.75;5099356;27;45877;-76
2022/10/31 02:30:16;;;;;;;;;13.67;12.00;;;;;16.16;100.00;101635.22;5077992;28;45741;-76
2022/10/31 02:33:07;;;;;;;;;11.00;11.00;;;;;16.18;100.00;101620.09;5099029;27;45313;-77
2022/10/31 02:35:45;;;;;;;;;18.67;13.00;;;;;16.20;100.00;101628.13;5093560;27;45486;-77
2022/10/31 02:38:19;;;;;;;;;19.67;13.00;;;;;16.21;100.00;101632.56;5076084;28;47987;-77
2022/10/31 02:41:01;;;;;;;;;17.33;15.00;;;;;16.23;100.00;101621.00;5097515;27;45167;-77
2022/10/31 02:43:34;;;;;;;;;21.00;14.33;;;;;16.21;100.00;101612.13;5079521;27;45394;-77
2022/10/31 02:46:06;;;;;;;;;15.33;15.33;;;;;16.23;100.00;101606.78;5081374;27;45336;-76
2022/10/31 02:48:35;;;;;;;;;19.67;15.33;;;;;16.21;100.00;101601.47;5074724;27;45601;-76
2022/10/31 02:51:02;;;;;;;;;23.33;19.00;;;;;16.25;100.00;101602.34;5078144;28;45399;-77
2022/10/31 02:53:33;;;;;;;;;19.00;15.67;;;;;16.27;100.00;101603.22;5078728;27;45347;-77
2022/10/31 02:56:05;;;;;;;;;20.67;16.00;;;;;16.29;100.00;101600.56;5081203;27;45406;-77
2022/10/31 02:58:36;;;;;;;;;22.67;17.67;;;;;16.27;100.00;101594.34;5079342;27;45765;-77
2022/10/31 03:01:14;;;;;;;;;24.00;21.00;;;;;16.29;100.00;101603.22;5063746;27;45613;-78
2022/10/31 03:03:48;;;;;;;;;20.33;18.67;;;;;16.30;100.00;101597.91;5081056;27;45331;-78
2022/10/31 03:06:18;;;;;;;;;26.00;20.00;;;;;16.32;100.00;101600.56;5099444;27;45392;-77
2022/10/31 03:09:11;;;;;;;;;23.00;21.33;;;;;16.32;100.00;101593.47;5099053;27;46099;-76
2022/10/31 03:12:20;;;;;;;;;22.33;22.00;;;;;16.33;100.00;101599.69;5080785;27;45500;-77
2022/10/31 03:15:00;;;;;;;;;25.00;20.67;;;;;16.32;100.00;101592.56;5020497;28;45514;-77
2022/10/31 03:17:33;;;;;;;;;25.33;22.33;;;;;16.30;100.00;101589.91;5046302;28;45556;-77
2022/10/31 03:20:00;;;;;;;;;22.00;22.00;;;;;16.33;100.00;101597.91;5072450;27;45563;-78
2022/10/31 03:22:28;;;;;;;;;26.00;21.33;;;;;16.31;100.00;101590.81;5095681;27;62931;-76
2022/10/31 03:24:55;;;;;;;;;25.75;23.50;;;;;16.31;100.00;101586.34;5080706;27;45270;-78
2022/10/31 03:27:26;;;;;;;;;22.33;21.00;;;;;16.29;100.00;101580.13;5076141;27;60326;-77
2022/10/31 03:29:55;;;;;;;;;23.00;21.67;;;;;16.30;100.00;101581.94;5080487;27;47602;-77
2022/10/31 03:32:27;;;;;;;;;21.67;21.33;;;;;16.31;100.00;101574.81;5098335;27;45379;-77
2022/10/31 03:34:56;;;;;;;;;22.67;22.00;;;;;16.31;100.00;101585.47;5077056;28;45528;-77
2022/10/31 03:37:22;;;;;;;;;24.67;20.33;;;;;16.30;100.00;101576.59;5062076;27;45513;-77
2022/10/31 03:39:49;;;;;;;;;23.00;22.00;;;;;16.30;100.00;101578.34;5074435;28;47172;-78
2022/10/31 03:42:20;;;;;;;;;25.67;23.00;;;;;16.30;100.00;101579.25;5088351;27;45406;-76
2022/10/31 03:44:55;;;;;;;;;23.33;20.67;;;;;16.30;100.00;101560.59;5071946;28;45430;-76
2022/10/31 03:47:20;;;;;;;;;25.33;20.33;;;;;16.32;100.00;101566.81;5072237;27;45634;-77
2022/10/31 03:49:46;;;;;;;;;27.50;23.75;;;;;16.33;100.00;101565.03;5076826;27;69370;-76
2022/10/31 03:52:30;;;;;;;;;26.00;22.67;;;;;16.34;100.00;101553.47;5096000;27;45413;-77
2022/10/31 03:55:18;;;;;;;;;29.00;25.75;;;;;16.32;100.00;101539.28;5079715;27;45356;-76
2022/10/31 03:57:48;;;;;;;;;25.67;19.33;;;;;16.30;100.00;101538.38;5080122;27;45331;-76
2022/10/31 04:00:15;;;;;;;;;24.33;21.67;;;;;16.32;100.00;101542.81;5096995;27;46766;-77
2022/10/31 04:02:43;;;;;;;;;31.00;27.75;;;;;16.32;100.00;101537.50;5079358;27;60382;-76
2022/10/31 04:05:09;;;;;;;;;26.67;23.67;;;;;16.33;100.00;101538.38;5075983;27;45593;-76
2022/10/31 04:07:39;;;;;;;;;24.00;22.33;;;;;16.31;100.00;101543.72;5082738;27;56198;-78
2022/10/31 04:10:08;;;;;;;;;28.00;25.67;;;;;16.32;100.00;101548.16;5073656;27;46759;-77
2022/10/31 04:12:34;;;;;;;;;30.00;27.25;;;;;16.33;100.00;101543.72;5075276;27;45534;-76
2022/10/31 04:15:02;;;;;;;;;26.50;24.00;;;;;16.34;100.00;101546.34;5051365;28;57550;-76
2022/10/31 04:17:29;;;;;;;;;30.00;24.67;;;;;16.32;100.00;101539.28;5094438;27;45424;-76
2022/10/31 04:19:55;;;;;;;;;26.50;22.50;;;;;16.32;100.00;101541.94;5074191;27;46686;-76
2022/10/31 04:22:20;;;;;;;;;26.33;23.00;;;;;16.34;100.00;101550.81;5076751;27;53428;-76
2022/10/31 04:24:46;;;;;;;;;28.67;24.00;;;;;16.34;100.00;101548.16;5094664;27;59967;-77
2022/10/31 04:27:11;;;;;;;;;27.50;25.25;;;;;16.33;100.00;101549.03;5095157;27;45483;-77
2022/10/31 04:29:36;;;;;;;;;28.33;26.00;;;;;16.34;100.00;101542.81;5075842;27;62167;-79
2022/10/31 04:32:02;;;;;;;;;27.00;25.33;;;;;16.34;100.00;101545.47;5060570;27;45341;-76
2022/10/31 04:34:27;;;;;;;;;27.00;21.67;;;;;16.33;100.00;101546.38;5095252;27;45962;-77
2022/10/31 04:36:52;;;;;;;;;24.33;22.00;;;;;16.31;100.00;101542.84;5056304;27;58270;-77
2022/10/31 04:39:18;;;;;;;;;28.50;24.00;;;;;16.35;100.00;101537.50;5092127;27;60296;-78
2022/10/31 04:41:43;;;;;;;;;26.50;24.00;;;;;16.34;100.00;101538.38;5069709;27;46834;-77
2022/10/31 04:44:08;;;;;;;;;25.67;23.00;;;;;16.33;100.00;101531.25;5076147;27;58413;-77
2022/10/31 04:46:34;;;;;;;;;29.33;25.33;;;;;16.33;100.00;101528.59;5078157;27;45673;-77
2022/10/31 04:48:59;;;;;;;;;24.00;21.33;;;;;16.33;100.00;101525.06;5074117;27;62154;-78
2022/10/31 04:51:24;;;;;;;;;23.67;22.67;;;;;16.38;100.00;101517.94;5090437;27;45734;-77
2022/10/31 04:53:49;;;;;;;;;26.00;22.67;;;;;16.39;100.00;101514.38;5069209;27;57022;-78
2022/10/31 04:56:15;;;;;;;;;21.00;21.00;;;;;16.37;100.00;101505.50;5083477;27;59706;-76
2022/10/31 04:58:40;;;;;;;;;25.33;22.00;;;;;16.37;100.00;101503.72;5091592;27;45630;-74
2022/10/31 05:01:05;;;;;;;;;26.33;22.00;;;;;16.38;100.00;101496.63;5083691;27;45911;-75
2022/10/31 05:03:31;;;;;;;;;26.00;23.00;;;;;16.40;100.00;101511.69;5079761;27;61444;-75
2022/10/31 05:05:56;;;;;;;;;25.00;24.00;;;;;16.39;100.00;101499.28;5070788;27;57763;-74
2022/10/31 05:08:21;;;;;;;;;27.00;20.00;;;;;16.40;100.00;101492.16;5065171;27;63894;-76
2022/10/31 05:10:47;;;;;;;;;27.50;24.00;;;;;16.39;100.00;101488.59;5069914;27;52600;-75
2022/10/31 05:13:14;;;;;;;;;30.00;24.33;;;;;16.42;100.00;101496.59;5084911;27;45447;-76
2022/10/31 05:15:40;;;;;;;;;28.67;23.00;;;;;16.42;100.00;101491.28;5068618;27;45497;-75
2022/10/31 05:18:05;;;;;;;;;26.00;21.00;;;;;16.42;100.00;101493.94;5092037;27;67286;-75
2022/10/31 05:20:30;;;;;;;;;24.75;23.00;;;;;16.40;100.00;101479.72;5083356;27;66753;-76
2022/10/31 05:22:58;;;;;;;;;20.00;20.00;;;;;16.44;100.00;101485.94;5069801;28;45457;-74
2022/10/31 05:25:26;;;;;;;;;23.25;22.00;;;;;16.42;100.00;101483.28;5078762;27;45684;-75
2022/10/31 05:27:52;;;;;;;;;26.25;21.75;;;;;16.43;100.00;101477.06;5080377;27;45591;-75
2022/10/31 05:30:23;;;;;;;;;23.50;21.50;;;;;16.41;100.00;101481.50;5073126;27;45542;-75
2022/10/31 05:32:50;;;;;;;;;27.00;24.25;;;;;16.42;100.00;101477.94;5082828;27;45391;-76
2022/10/31 05:35:17;;;;;;;;;27.33;21.33;;;;;16.44;100.00;101467.28;5064160;27;45582;-76
2022/10/31 05:37:43;;;;;;;;;28.00;24.00;;;;;16.43;100.00;101465.50;5091217;27;46275;-75
2022/10/31 05:40:10;;;;;;;;;27.75;22.00;;;;;16.42;100.00;101464.63;5074519;27;45242;-76
2022/10/31 05:42:38;;;;;;;;;23.00;22.00;;;;;16.42;100.00;101455.75;5070717;27;45536;-75
2022/10/31 05:45:03;;;;;;;;;25.67;22.33;;;;;16.43;100.00;101455.72;5087104;27;45497;-75
2022/10/31 05:47:29;;;;;;;;;23.00;19.00;;;;;16.44;100.00;101451.28;5086571;27;46320;-76
2022/10/31 05:49:54;;;;;;;;;22.67;20.33;;;;;16.43;100.00;101465.50;5087184;27;63588;-75
2022/10/31 05:52:19;;;;;;;;;15.33;10.00;;;;;16.43;100.00;101460.19;5097222;27;45272;-76
2022/10/31 05:54:45;;;;;;;;;20.00;18.00;;;;;16.43;100.00;101458.41;5078138;27;50671;-75
2022/10/31 05:57:10;;;;;;;;;22.67;18.00;;;;;16.41;100.00;101457.53;5095899;27;62959;-75
2022/10/31 05:59:36;;;;;;;;;17.67;15.67;;;;;16.44;100.00;101448.63;5095929;27;63243;-75
2022/10/31 06:02:01;;;;;;;;;22.33;20.33;;;;;16.43;100.00;101445.06;5077313;27;62717;-75
2022/10/31 06:04:26;;;;;;;;;26.67;21.67;;;;;16.43;100.00;101446.84;5096237;27;55956;-75
2022/10/31 06:06:51;;;;;;;;;20.33;18.33;;;;;16.42;100.00;101435.31;5095735;27;65233;-75
2022/10/31 06:09:17;;;;;;;;;25.33;18.33;;;;;16.45;100.00;101442.38;5077204;27;61673;-76
2022/10/31 06:11:42;;;;;;;;;24.67;21.00;;;;;16.43;100.00;101430.84;5077873;27;45545;-75
2022/10/31 06:14:07;;;;;;;;;20.67;17.67;;;;;16.45;100.00;101439.72;5090396;27;45256;-76
2022/10/31 06:16:33;;;;;;;;;25.00;20.00;;;;;16.44;100.00;101438.84;5096236;27;66733;-75
2022/10/31 06:18:58;;;;;;;;;20.00;19.00;;;;;16.44;100.00;101422.84;5074511;27;66945;-76
2022/10/31 06:21:24;;;;;;;;;19.67;17.00;;;;;16.44;100.00;101436.16;5099293;27;63585;-76
2022/10/31 06:23:49;;;;;;;;;22.33;19.00;;;;;16.46;100.00;101430.84;5081692;27;45637;-75
2022/10/31 06:26:15;;;;;;;;;21.33;17.33;;;;;16.42;100.00;101435.31;5079551;27;45663;-76
2022/10/31 06:28:40;;;;;;;;;26.00;20.33;;;;;16.43;100.00;101430.84;5094357;27;63639;-75
2022/10/31 06:31:05;;;;;;;;;24.00;18.00;;;;;16.41;100.00;101430.00;5078665;27;49921;-76
2022/10/31 06:33:31;;;;;;;;;20.67;16.00;;;;;16.42;100.00;101429.97;5081704;27;45632;-75
2022/10/31 06:35:56;;;;;;;;;19.33;16.33;;;;;16.44;100.00;101433.50;5099417;27;46076;-75
2022/10/31 06:38:21;;;;;;;;;17.00;17.00;;;;;16.43;100.00;101423.75;5099150;27;65954;-76
2022/10/31 06:40:47;;;;;;;;;19.33;18.33;;;;;16.43;100.00;101417.53;5091818;27;48227;-75
2022/10/31 06:43:14;;;;;;;;;22.67;21.67;;;;;16.44;100.00;101425.50;5098788;27;62056;-75
2022/10/31 06:45:39;;;;;;;;;18.00;16.00;;;;;16.44;100.00;101424.63;5079074;27;46817;-75
2022/10/31 06:48:05;;;;;;;;;20.33;17.00;;;;;16.44;100.00;101422.84;5098908;27;49982;-75
2022/10/31 06:50:30;;;;;;;;;16.33;15.67;;;;;16.45;100.00;101418.41;5079385;27;45262;-75
2022/10/31 06:52:57;;;;;;;;;22.00;17.00;;;;;16.45;100.00;101410.41;5080657;27;61721;-76
2022/10/31 06:55:24;;;;;;;;;17.33;17.33;;;;;16.46;100.00;101412.19;5079282;27;46791;-75
2022/10/31 06:57:53;;;;;;;;;16.33;13.00;;;;;16.48;100.00;101427.28;5081131;27;45565;-75
2022/10/31 07:00:19;;;;;;;;;18.33;15.33;;;;;16.47;100.00;101424.63;5099343;27;45297;-76
2022/10/31 07:03:09;;;;;;;;;17.00;15.33;;;;;16.49;100.00;101421.06;5098408;27;45632;-75
2022/10/31 07:05:35;;;;;;;;;18.67;17.67;;;;;16.49;100.00;101412.16;5098963;27;46434;-75
2022/10/31 07:08:03;;;;;;;;;21.33;15.00;;;;;16.50;100.00;101412.16;5060331;28;45494;-75
2022/10/31 07:10:30;;;;;;;;;18.33;16.00;;;;;16.50;100.00;101409.50;5080467;27;45512;-76
2022/10/31 07:12:56;;;;;;;;;18.33;16.67;;;;;16.53;100.00;101405.94;5094240;27;45468;-75
2022/10/31 07:15:22;;;;;;;;;16.00;15.33;;;;;16.54;100.00;101412.16;5096685;27;47468;-75
2022/10/31 07:17:48;;;;;;;;;14.33;12.33;;;;;16.55;100.00;101403.25;5076931;27;45516;-76
2022/10/31 07:20:13;;;;;;;;;14.67;12.67;;;;;16.55;100.00;101404.13;5098399;27;59440;-75
2022/10/31 07:22:38;;;;;;;;;18.33;16.00;;;;;16.57;100.00;101410.38;5098962;27;45311;-75
2022/10/31 07:25:04;;;;;;;;;18.67;15.00;;;;;16.58;100.00;101406.81;5098861;27;46425;-75
2022/10/31 07:27:38;;;;;;;;;23.00;16.67;;;;;16.61;100.00;101405.88;5097995;27;45437;-75
2022/10/31 07:30:04;;;;;;;;;17.00;15.00;;;;;16.60;100.00;101397.00;5098984;27;45191;-75
2022/10/31 07:32:39;;;;;;;;;15.00;14.33;;;;;16.62;100.00;101400.56;5080456;27;45482;-75
2022/10/31 07:35:05;;;;;;;;;20.33;15.67;;;;;16.62;100.00;101402.31;5098695;27;46023;-75
2022/10/31 07:37:31;;;;;;;;;14.33;13.00;;;;;16.63;100.00;101404.13;5098434;27;45373;-77
2022/10/31 07:39:56;;;;;;;;;21.00;14.67;;;;;16.67;100.00;101401.44;5079778;27;62616;-76
2022/10/31 07:42:21;;;;;;;;;20.00;14.00;;;;;16.70;100.00;101400.53;5098091;27;59521;-75
2022/10/31 07:44:47;;;;;;;;;20.67;15.00;;;;;16.69;100.00;101399.63;5098364;27;46751;-75
2022/10/31 07:47:12;;;;;;;;;22.33;16.00;;;;;16.72;100.00;101399.66;5078130;27;45491;-76
2022/10/31 07:49:37;;;;;;;;;15.00;13.00;;;;;16.72;100.00;101397.00;5093226;27;57285;-75
2022/10/31 07:52:03;;;;;;;;;22.33;15.00;;;;;16.75;100.00;101415.63;5097867;27;55590;-75
2022/10/31 07:54:28;;;;;;;;;13.67;13.67;;;;;16.74;100.00;101405.88;5098503;27;47752;-75
2022/10/31 07:56:54;;;;;;;;;13.67;12.67;;;;;16.76;100.00;101409.41;5097479;27;67033;-75
2022/10/31 07:59:19;;;;;;;;;14.33;14.33;;;;;16.76;100.00;101408.53;5098322;27;61193;-75
2022/10/31 08:01:44;;;;;;;;;15.67;15.67;;;;;16.82;100.00;101402.25;5098410;27;45596;-76
2022/10/31 08:04:10;;;;;;;;;17.00;14.00;;;;;16.82;100.00;101399.59;5080005;27;49139;-75
2022/10/31 08:06:35;;;;;;;;;21.00;15.00;;;;;16.86;100.00;101396.03;5077836;27;45560;-75
2022/10/31 08:09:00;;;;;;;;;16.33;14.00;;;;;16.86;100.00;101396.03;5098419;27;45400;-75
2022/10/31 08:11:26;;;;;;;;;23.67;18.00;;;;;16.91;100.00;101399.56;5097758;27;53495;-75
2022/10/31 08:13:51;;;;;;;;;20.33;16.33;;;;;16.94;100.00;101386.22;5091365;27;67019;-75
2022/10/31 08:16:17;;;;;;;;;14.67;14.67;;;;;16.96;100.00;101385.28;5094387;27;62302;-75
2022/10/31 08:18:42;;;;;;;;;17.33;14.33;;;;;16.98;100.00;101379.94;5092451;27;45759;-76
2022/10/31 08:21:07;;;;;;;;;16.67;13.67;;;;;17.00;100.00;101387.03;5097499;27;57261;-75
2022/10/31 08:23:33;;;;;;;;;16.67;15.33;;;;;17.05;100.00;101387.03;5097006;27;62310;-76
2022/10/31 08:25:58;;;;;;;;;15.33;13.33;;;;;17.06;100.00;101379.91;5097479;27;45352;-75
2022/10/31 08:28:23;;;;;;;;;19.00;18.00;;;;;17.11;100.00;101381.63;5097984;27;45433;-75
2022/10/31 08:30:49;;;;;;;;;18.33;15.67;;;;;17.15;100.00;101379.81;5097468;27;57191;-75
2022/10/31 08:33:16;;;;;;;;;18.00;14.00;;;;;17.19;100.00;101368.22;5096986;27;64973;-75
2022/10/31 08:35:42;;;;;;;;;16.33;15.00;;;;;17.25;100.00;101370.84;5098072;27;45364;-75
2022/10/31 08:38:09;;;;;;;;;16.67;15.00;;;;;17.28;100.00;101352.16;5079323;27;45481;-76
2022/10/31 08:40:35;;;;;;;;;20.00;17.00;;;;;17.32;100.00;101342.34;5068626;28;45177;-75
2022/10/31 08:43:03;;;;;;;;;13.67;13.00;;;;;17.38;100.00;101339.63;5072972;28;47390;-75
2022/10/31 08:45:30;;;;;;;;;17.33;15.00;;;;;17.40;100.00;101333.34;5072644;27;45743;-75
2022/10/31 08:48:00;;;;;;;;;14.00;14.00;;;;;17.45;100.00;101341.31;5079131;27;45331;-76
2022/10/31 08:50:26;;;;;;;;;19.00;15.00;;;;;17.48;100.00;101327.94;5073994;27;45299;-76
2022/10/31 08:52:51;;;;;;;;;12.33;12.00;;;;;17.50;100.00;101327.03;5079406;27;46383;-75
2022/10/31 08:55:17;;;;;;;;;20.33;16.67;;;;;17.54;100.00;101318.09;5077827;27;68207;-76
2022/10/31 08:57:42;;;;;;;;;17.67;16.00;;;;;17.63;100.00;101321.56;5079057;27;54720;-75
2022/10/31 09:00:08;;;;;;;;;19.00;16.67;;;;;17.67;100.00;101313.50;5096661;27;58992;-75
2022/10/31 09:02:33;;;;;;;;;15.00;15.00;;;;;17.75;100.00;101302.78;5076136;28;46715;-75
2022/10/31 09:04:59;;;;;;;;;15.00;15.00;;;;;17.78;100.00;101306.28;5077331;27;45445;-75
2022/10/31 09:07:24;;;;;;;;;17.00;15.33;;;;;17.86;100.00;101300.00;5090422;27;45471;-75
2022/10/31 09:09:49;;;;;;;;;21.67;16.67;;;;;17.90;100.00;101289.25;5249127;22;45314;-75
2022/10/31 09:12:15;;;;;;;;;15.33;15.00;;;;;17.94;100.00;101290.09;5117070;27;47409;-75
2022/10/31 09:14:40;;;;;;;;;18.00;15.00;;;;;18.00;100.00;101293.59;5109698;27;65289;-75
2022/10/31 09:17:05;;;;;;;;;21.33;16.67;;;;;18.05;100.00;101297.06;5106871;27;59733;-74
2022/10/31 09:19:31;;;;;;;;;16.67;16.33;;;;;18.07;100.00;101283.69;5109973;27;59338;-75
2022/10/31 09:21:56;;;;;;;;;18.33;15.00;;;;;18.06;100.00;101266.78;5110856;27;64956;-75
2022/10/31 09:24:21;;;;;;;;;17.67;17.00;;;;;18.10;100.00;101258.72;5107094;27;68822;-75
2022/10/31 09:26:47;;;;;;;;;18.00;16.67;;;;;18.12;100.00;101265.81;5101933;27;52821;-75
2022/10/31 09:29:12;;;;;;;;;19.67;17.00;;;;;18.10;100.00;101264.94;5102857;27;56076;-75
2022/10/31 09:31:38;;;;;;;;;18.67;16.00;;;;;18.09;100.00;101247.13;5116391;27;46439;-76
2022/10/31 09:34:03;;;;;;;;;23.67;19.67;;;;;18.10;100.00;101243.56;5103884;27;63635;-75
2022/10/31 09:36:29;;;;;;;;;18.33;17.33;;;;;18.11;100.00;101234.66;5097422;27;54215;-75
2022/10/31 09:38:54;;;;;;;;;20.33;16.33;;;;;18.10;100.00;101229.31;5108610;27;45373;-75
2022/10/31 09:41:27;;;;;;;;;18.67;17.00;;;;;18.10;100.00;101234.66;5115502;27;45710;-75
2022/10/31 09:44:18;;;;;;;;;23.00;16.00;;;;;18.12;100.00;101231.06;5114371;27;45454;-75
2022/10/31 09:47:06;;;;;;;;;19.33;17.33;;;;;18.11;100.00;101226.63;5102785;27;45456;-76
2022/10/31 09:49:37;;;;;;;;;22.67;17.33;;;;;18.14;100.00;101231.94;5118281;27;45474;-75
2022/10/31 09:52:20;;;;;;;;;20.00;18.33;;;;;18.16;100.00;101229.22;5117504;27;46851;-76
2022/10/31 09:54:59;;;;;;;;;21.67;19.00;;;;;18.18;100.00;101222.97;5109205;27;45411;-75
2022/10/31 09:57:27;;;;;;;;;26.00;19.33;;;;;18.22;100.00;101218.47;5107067;27;45323;-75
2022/10/31 09:59:53;;;;;;;;;24.67;19.67;;;;;18.23;100.00;101217.56;5106729;27;45321;-75
2022/10/31 10:02:24;;;;;;;;;19.00;18.67;;;;;18.26;100.00;101221.06;5117667;27;69739;-75
2022/10/31 10:04:52;;;;;;;;;23.00;18.67;;;;;18.27;100.00;101214.81;5119001;27;45819;-75
2022/10/31 10:07:58;;;;;;;;;22.33;18.33;;;;;18.30;100.00;101221.91;5115708;27;45532;-75
2022/10/31 10:10:46;;;;;;;;;15.00;15.00;;;;;18.34;100.00;101210.25;5118454;27;45569;-74
2022/10/31 10:13:33;;;;;;;;;17.00;16.00;;;;;18.38;100.00;101201.31;5116856;27;46659;-74
2022/10/31 10:16:13;;;;;;;;;18.33;18.33;;;;;18.43;100.00;101198.53;5115698;27;45464;-75
2022/10/31 10:18:50;;;;;;;;;18.33;14.00;;;;;18.49;100.00;101185.09;5119294;27;45413;-76
2022/10/31 10:21:47;;;;;;;;;18.33;15.33;;;;;18.59;100.00;101176.88;5113938;27;45436;-75
2022/10/31 10:24:25;;;;;;;;;24.33;16.67;;;;;18.68;100.00;101156.25;5083879;27;47075;-75
2022/10/31 10:26:58;;;;;;;;;58.00;33.00;;;;;18.71;100.00;101151.75;5104730;27;45272;-75
2022/10/31 10:29:36;;;;;;;;;23.00;18.67;;;;;18.78;100.00;101145.38;5106757;27;45267;-75
2022/10/31 10:32:09;;;;;;;;;21.00;14.00;;;;;18.82;100.00;101149.75;5101220;27;45498;-74
2022/10/31 10:34:40;;;;;;;;;17.67;17.67;;;;;18.86;100.00;101150.59;5101031;27;47810;-75
2022/10/31 10:37:14;;;;;;;;;19.00;17.00;;;;;18.95;100.00;101147.75;5110534;27;45370;-74
2022/10/31 10:39:43;;;;;;;;;17.33;13.00;;;;;19.03;100.00;101139.59;5118698;27;45493;-75
2022/10/31 10:47:44;;;;;;;;;21.00;17.00;;;;;19.24;100.00;101120.44;5108985;27;45204;-76
2022/10/31 10:50:15;;;;;;;;;18.00;15.00;;;;;19.35;100.00;101121.09;5118897;27;45347;-75
2022/10/31 10:53:07;;;;;;;;;18.67;16.00;;;;;19.43;100.00;101120.91;5113498;27;45413;-75
2022/10/31 10:55:51;;;;;;;;;21.33;14.00;;;;;19.54;100.00;101105.50;5083394;27;46171;-75
2022/10/31 10:58:16;;;;;;;;;13.67;12.67;;;;;19.64;100.00;101084.78;5098975;27;45439;-75
2022/10/31 11:00:49;;;;;;;;;18.67;14.33;;;;;19.75;100.00;101077.38;5117945;27;58671;-74
2022/10/31 11:03:16;;;;;;;;;14.67;12.33;;;;;19.82;100.00;101059.38;5118435;27;45415;-75
2022/10/31 11:05:47;;;;;;;;;14.67;10.67;;;;;19.79;100.00;101046.94;5117309;27;45829;-75
2022/10/31 11:08:29;;;;;;;;;16.00;12.33;;;;;19.77;100.00;101029.13;5135610;27;45304;-76
2022/10/31 11:11:04;;;;;;;;;16.33;12.67;;;;;19.83;100.00;101023.63;5118942;27;45439;-76
2022/10/31 11:13:31;;;;;;;;;16.00;15.00;;;;;19.93;100.00;101024.28;5115223;27;45551;-75
2022/10/31 11:16:12;;;;;;;;;21.00;15.00;;;;;19.97;100.00;101020.59;5114365;27;45520;-75
2022/10/31 11:18:41;;;;;;;;;15.33;14.33;;;;;19.98;100.00;101017.03;5113006;27;45476;-75